sensor_id;sensor_type;location;lat;lon;timestamp;P1;durP1;ratioP1;P2;durP2;ratioP2
6356;SDS011;3211;53.452;-2.264;2023-02-15T00:00:54;32.60;;;20.43;;
6356;SDS011;3211;53.452;-2.264;2023-02-15T00:03:31;31.43;;;18.50;;
6356;SDS011;3211;53.452;-2.264;2023-02-15T00:05:58;29.77;;;19.80;;
6356;SDS011;3211;53.452;-2.264;2023-02-15T00:08:25;30.87;;;20.40;;
6356;SDS011;3211;53.452;-2.264;2023-02-15T00:10:52;34.83;;;21.03;;
6356;SDS011;3211;53.452;-2.264;2023-02-15T00:13:20;33.30;;;19.73;;
6356;SDS011;3211;53.452;-2.264;2023-02-15T00:15:47;31.80;;;19.87;;
6356;SDS011;3211;53.452;-2.264;2023-02-15T00:18:14;31.40;;;19.93;;
6356;SDS011;3211;53.452;-2.264;2023-02-15T00:20:41;32.30;;;20.57;;
6356;SDS011;3211;53.452;-2.264;2023-02-15T00:23:08;34.00;;;21.27;;
6356;SDS011;3211;53.452;-2.264;2023-02-15T00:25:35;38.03;;;21.73;;
6356;SDS011;3211;53.452;-2.264;2023-02-15T00:28:02;31.77;;;21.83;;
6356;SDS011;3211;53.452;-2.264;2023-02-15T00:30:30;32.73;;;21.97;;
6356;SDS011;3211;53.452;-2.264;2023-02-15T00:32:57;34.60;;;22.40;;
6356;SDS011;3211;53.452;-2.264;2023-02-15T00:35:24;36.90;;;22.60;;
6356;SDS011;3211;53.452;-2.264;2023-02-15T00:37:51;41.23;;;23.10;;
6356;SDS011;3211;53.452;-2.264;2023-02-15T00:40:18;31.60;;;22.33;;
6356;SDS011;3211;53.452;-2.264;2023-02-15T00:42:45;32.77;;;22.40;;
6356;SDS011;3211;53.452;-2.264;2023-02-15T00:45:12;32.93;;;21.97;;
6356;SDS011;3211;53.452;-2.264;2023-02-15T00:47:40;32.03;;;20.13;;
6356;SDS011;3211;53.452;-2.264;2023-02-15T00:50:08;33.00;;;21.53;;
6356;SDS011;3211;53.452;-2.264;2023-02-15T00:52:35;33.30;;;21.67;;
6356;SDS011;3211;53.452;-2.264;2023-02-15T00:55:02;33.50;;;22.33;;
6356;SDS011;3211;53.452;-2.264;2023-02-15T00:57:29;36.77;;;21.47;;
6356;SDS011;3211;53.452;-2.264;2023-02-15T00:59:56;31.43;;;20.33;;
6356;SDS011;3211;53.452;-2.264;2023-02-15T01:02:23;31.43;;;21.53;;
6356;SDS011;3211;53.452;-2.264;2023-02-15T01:04:51;35.07;;;21.13;;
6356;SDS011;3211;53.452;-2.264;2023-02-15T01:07:18;35.00;;;21.80;;
6356;SDS011;3211;53.452;-2.264;2023-02-15T01:09:45;29.00;;;19.97;;
6356;SDS011;3211;53.452;-2.264;2023-02-15T01:12:12;31.50;;;19.60;;
6356;SDS011;3211;53.452;-2.264;2023-02-15T01:14:39;36.37;;;19.57;;
6356;SDS011;3211;53.452;-2.264;2023-02-15T01:17:06;32.47;;;20.20;;
6356;SDS011;3211;53.452;-2.264;2023-02-15T01:19:33;28.33;;;18.00;;
6356;SDS011;3211;53.452;-2.264;2023-02-15T01:22:01;36.87;;;23.73;;
6356;SDS011;3211;53.452;-2.264;2023-02-15T01:24:28;30.20;;;19.87;;
6356;SDS011;3211;53.452;-2.264;2023-02-15T01:26:55;29.13;;;20.20;;
6356;SDS011;3211;53.452;-2.264;2023-02-15T01:29:22;34.53;;;18.53;;
6356;SDS011;3211;53.452;-2.264;2023-02-15T01:31:49;28.13;;;18.13;;
6356;SDS011;3211;53.452;-2.264;2023-02-15T01:34:16;30.83;;;20.50;;
6356;SDS011;3211;53.452;-2.264;2023-02-15T01:36:43;26.37;;;18.00;;
6356;SDS011;3211;53.452;-2.264;2023-02-15T01:39:11;26.37;;;17.83;;
6356;SDS011;3211;53.452;-2.264;2023-02-15T01:41:38;29.80;;;18.67;;
6356;SDS011;3211;53.452;-2.264;2023-02-15T01:47:01;24.60;;;17.13;;
6356;SDS011;3211;53.452;-2.264;2023-02-15T01:49:29;29.80;;;19.03;;
6356;SDS011;3211;53.452;-2.264;2023-02-15T01:51:56;28.80;;;17.90;;
6356;SDS011;3211;53.452;-2.264;2023-02-15T01:54:25;22.90;;;16.70;;
6356;SDS011;3211;53.452;-2.264;2023-02-15T01:56:56;26.40;;;18.40;;
6356;SDS011;3211;53.452;-2.264;2023-02-15T01:59:26;27.43;;;16.97;;
6356;SDS011;3211;53.452;-2.264;2023-02-15T02:01:54;26.07;;;17.10;;
6356;SDS011;3211;53.452;-2.264;2023-02-15T02:04:25;30.37;;;17.03;;
6356;SDS011;3211;53.452;-2.264;2023-02-15T02:06:59;26.30;;;17.60;;
6356;SDS011;3211;53.452;-2.264;2023-02-15T02:09:28;25.50;;;16.67;;
6356;SDS011;3211;53.452;-2.264;2023-02-15T02:11:56;28.37;;;17.43;;
6356;SDS011;3211;53.452;-2.264;2023-02-15T02:14:23;30.77;;;18.90;;
6356;SDS011;3211;53.452;-2.264;2023-02-15T02:16:52;29.27;;;17.73;;
6356;SDS011;3211;53.452;-2.264;2023-02-15T02:28:19;24.03;;;15.17;;
6356;SDS011;3211;53.452;-2.264;2023-02-15T02:31:05;24.97;;;15.70;;
6356;SDS011;3211;53.452;-2.264;2023-02-15T02:33:58;22.30;;;15.57;;
6356;SDS011;3211;53.452;-2.264;2023-02-15T02:36:31;23.17;;;15.57;;
6356;SDS011;3211;53.452;-2.264;2023-02-15T02:39:08;23.90;;;16.30;;
6356;SDS011;3211;53.452;-2.264;2023-02-15T02:41:44;21.80;;;16.10;;
6356;SDS011;3211;53.452;-2.264;2023-02-15T02:44:22;24.97;;;16.40;;
6356;SDS011;3211;53.452;-2.264;2023-02-15T02:46:53;26.57;;;15.30;;
6356;SDS011;3211;53.452;-2.264;2023-02-15T02:49:33;25.23;;;16.10;;
6356;SDS011;3211;53.452;-2.264;2023-02-15T02:52:02;23.17;;;16.53;;
6356;SDS011;3211;53.452;-2.264;2023-02-15T02:54:30;22.47;;;14.43;;
6356;SDS011;3211;53.452;-2.264;2023-02-15T02:56:59;26.00;;;14.87;;
6356;SDS011;3211;53.452;-2.264;2023-02-15T02:59:31;24.97;;;16.13;;
6356;SDS011;3211;53.452;-2.264;2023-02-15T03:02:03;21.80;;;15.43;;
6356;SDS011;3211;53.452;-2.264;2023-02-15T03:04:39;25.40;;;14.63;;
6356;SDS011;3211;53.452;-2.264;2023-02-15T03:07:10;23.77;;;15.20;;
6356;SDS011;3211;53.452;-2.264;2023-02-15T03:09:41;25.10;;;15.20;;
6356;SDS011;3211;53.452;-2.264;2023-02-15T03:12:10;21.83;;;14.50;;
6356;SDS011;3211;53.452;-2.264;2023-02-15T03:14:39;24.20;;;14.23;;
6356;SDS011;3211;53.452;-2.264;2023-02-15T03:17:10;26.73;;;15.40;;
6356;SDS011;3211;53.452;-2.264;2023-02-15T03:19:41;23.30;;;14.23;;
6356;SDS011;3211;53.452;-2.264;2023-02-15T03:22:13;21.57;;;13.90;;
6356;SDS011;3211;53.452;-2.264;2023-02-15T03:24:47;20.37;;;14.00;;
6356;SDS011;3211;53.452;-2.264;2023-02-15T03:27:19;20.60;;;14.10;;
6356;SDS011;3211;53.452;-2.264;2023-02-15T03:29:50;23.50;;;16.00;;
6356;SDS011;3211;53.452;-2.264;2023-02-15T03:32:21;26.90;;;15.00;;
6356;SDS011;3211;53.452;-2.264;2023-02-15T03:34:52;22.67;;;14.40;;
6356;SDS011;3211;53.452;-2.264;2023-02-15T03:37:22;23.00;;;14.67;;
6356;SDS011;3211;53.452;-2.264;2023-02-15T03:39:55;21.33;;;14.67;;
6356;SDS011;3211;53.452;-2.264;2023-02-15T03:42:45;20.63;;;14.13;;
6356;SDS011;3211;53.452;-2.264;2023-02-15T03:45:19;22.57;;;14.87;;
6356;SDS011;3211;53.452;-2.264;2023-02-15T03:47:50;20.10;;;14.30;;
6356;SDS011;3211;53.452;-2.264;2023-02-15T03:50:22;25.53;;;15.63;;
6356;SDS011;3211;53.452;-2.264;2023-02-15T03:53:11;22.87;;;15.00;;
6356;SDS011;3211;53.452;-2.264;2023-02-15T03:55:41;20.83;;;14.10;;
6356;SDS011;3211;53.452;-2.264;2023-02-15T03:58:08;23.13;;;14.83;;
6356;SDS011;3211;53.452;-2.264;2023-02-15T04:00:54;23.07;;;15.57;;
6356;SDS011;3211;53.452;-2.264;2023-02-15T04:03:43;24.63;;;14.67;;
6356;SDS011;3211;53.452;-2.264;2023-02-15T04:06:17;24.67;;;15.10;;
6356;SDS011;3211;53.452;-2.264;2023-02-15T04:08:44;23.90;;;14.30;;
6356;SDS011;3211;53.452;-2.264;2023-02-15T04:11:28;20.63;;;13.43;;
6356;SDS011;3211;53.452;-2.264;2023-02-15T04:13:55;24.33;;;13.93;;
6356;SDS011;3211;53.452;-2.264;2023-02-15T04:16:22;22.10;;;13.80;;
6356;SDS011;3211;53.452;-2.264;2023-02-15T04:18:48;19.63;;;12.97;;
6356;SDS011;3211;53.452;-2.264;2023-02-15T04:21:34;22.23;;;13.20;;
6356;SDS011;3211;53.452;-2.264;2023-02-15T04:24:18;20.13;;;13.63;;
6356;SDS011;3211;53.452;-2.264;2023-02-15T04:27:03;24.07;;;14.27;;
6356;SDS011;3211;53.452;-2.264;2023-02-15T04:29:30;22.17;;;13.90;;
6356;SDS011;3211;53.452;-2.264;2023-02-15T04:31:58;21.17;;;13.07;;
6356;SDS011;3211;53.452;-2.264;2023-02-15T04:34:26;26.53;;;13.77;;
6356;SDS011;3211;53.452;-2.264;2023-02-15T04:36:54;20.73;;;12.17;;
6356;SDS011;3211;53.452;-2.264;2023-02-15T04:39:21;22.13;;;13.70;;
6356;SDS011;3211;53.452;-2.264;2023-02-15T04:41:48;22.27;;;14.07;;
6356;SDS011;3211;53.452;-2.264;2023-02-15T04:44:15;23.03;;;14.27;;
6356;SDS011;3211;53.452;-2.264;2023-02-15T04:46:42;21.80;;;13.87;;
6356;SDS011;3211;53.452;-2.264;2023-02-15T04:49:09;16.87;;;11.83;;
6356;SDS011;3211;53.452;-2.264;2023-02-15T04:51:36;20.27;;;13.70;;
6356;SDS011;3211;53.452;-2.264;2023-02-15T04:54:04;23.23;;;15.07;;
6356;SDS011;3211;53.452;-2.264;2023-02-15T04:56:31;20.40;;;13.37;;
6356;SDS011;3211;53.452;-2.264;2023-02-15T04:58:59;20.70;;;14.23;;
6356;SDS011;3211;53.452;-2.264;2023-02-15T05:01:26;24.67;;;14.17;;
6356;SDS011;3211;53.452;-2.264;2023-02-15T05:03:54;20.53;;;13.87;;
6356;SDS011;3211;53.452;-2.264;2023-02-15T05:06:20;18.60;;;13.40;;
6356;SDS011;3211;53.452;-2.264;2023-02-15T05:08:47;21.43;;;14.60;;
6356;SDS011;3211;53.452;-2.264;2023-02-15T05:11:16;23.10;;;13.77;;
6356;SDS011;3211;53.452;-2.264;2023-02-15T05:13:43;21.50;;;14.20;;
6356;SDS011;3211;53.452;-2.264;2023-02-15T05:16:10;24.33;;;15.00;;
6356;SDS011;3211;53.452;-2.264;2023-02-15T05:18:37;19.17;;;13.87;;
6356;SDS011;3211;53.452;-2.264;2023-02-15T05:21:04;22.00;;;14.90;;
6356;SDS011;3211;53.452;-2.264;2023-02-15T05:23:31;21.70;;;14.00;;
6356;SDS011;3211;53.452;-2.264;2023-02-15T05:25:58;22.90;;;15.53;;
6356;SDS011;3211;53.452;-2.264;2023-02-15T05:28:44;24.50;;;14.90;;
6356;SDS011;3211;53.452;-2.264;2023-02-15T05:31:11;26.13;;;15.40;;
6356;SDS011;3211;53.452;-2.264;2023-02-15T05:33:43;23.27;;;16.20;;
6356;SDS011;3211;53.452;-2.264;2023-02-15T05:36:11;21.63;;;15.23;;
6356;SDS011;3211;53.452;-2.264;2023-02-15T05:38:38;25.53;;;15.93;;
6356;SDS011;3211;53.452;-2.264;2023-02-15T05:41:05;24.17;;;14.97;;
6356;SDS011;3211;53.452;-2.264;2023-02-15T05:43:32;22.87;;;14.90;;
6356;SDS011;3211;53.452;-2.264;2023-02-15T05:46:01;26.50;;;16.40;;
6356;SDS011;3211;53.452;-2.264;2023-02-15T05:48:47;23.90;;;15.40;;
6356;SDS011;3211;53.452;-2.264;2023-02-15T05:51:14;22.90;;;14.97;;
6356;SDS011;3211;53.452;-2.264;2023-02-15T05:53:41;27.87;;;17.70;;
6356;SDS011;3211;53.452;-2.264;2023-02-15T05:56:09;29.00;;;17.53;;
6356;SDS011;3211;53.452;-2.264;2023-02-15T05:58:37;27.43;;;17.23;;
6356;SDS011;3211;53.452;-2.264;2023-02-15T06:01:11;23.27;;;15.63;;
6356;SDS011;3211;53.452;-2.264;2023-02-15T06:03:39;29.33;;;17.97;;
6356;SDS011;3211;53.452;-2.264;2023-02-15T06:06:07;23.43;;;16.47;;
6356;SDS011;3211;53.452;-2.264;2023-02-15T06:08:34;24.40;;;16.80;;
6356;SDS011;3211;53.452;-2.264;2023-02-15T06:11:02;28.00;;;18.13;;
6356;SDS011;3211;53.452;-2.264;2023-02-15T06:13:30;27.03;;;17.27;;
6356;SDS011;3211;53.452;-2.264;2023-02-15T06:15:57;33.03;;;17.80;;
6356;SDS011;3211;53.452;-2.264;2023-02-15T06:18:26;26.60;;;18.00;;
6356;SDS011;3211;53.452;-2.264;2023-02-15T06:20:53;30.80;;;18.37;;
6356;SDS011;3211;53.452;-2.264;2023-02-15T06:23:20;26.37;;;16.90;;
6356;SDS011;3211;53.452;-2.264;2023-02-15T06:25:47;31.77;;;18.77;;
6356;SDS011;3211;53.452;-2.264;2023-02-15T06:28:14;31.93;;;18.10;;
6356;SDS011;3211;53.452;-2.264;2023-02-15T06:30:41;27.60;;;17.53;;
6356;SDS011;3211;53.452;-2.264;2023-02-15T06:33:08;28.07;;;18.47;;
6356;SDS011;3211;53.452;-2.264;2023-02-15T06:35:37;25.67;;;17.70;;
6356;SDS011;3211;53.452;-2.264;2023-02-15T06:38:04;29.23;;;18.03;;
6356;SDS011;3211;53.452;-2.264;2023-02-15T06:40:31;30.73;;;18.40;;
6356;SDS011;3211;53.452;-2.264;2023-02-15T06:42:58;28.10;;;19.60;;
6356;SDS011;3211;53.452;-2.264;2023-02-15T06:45:24;29.03;;;18.50;;
6356;SDS011;3211;53.452;-2.264;2023-02-15T06:47:51;30.97;;;18.77;;
6356;SDS011;3211;53.452;-2.264;2023-02-15T06:50:18;25.27;;;18.33;;
6356;SDS011;3211;53.452;-2.264;2023-02-15T06:52:47;26.50;;;17.90;;
6356;SDS011;3211;53.452;-2.264;2023-02-15T06:55:14;33.67;;;19.70;;
6356;SDS011;3211;53.452;-2.264;2023-02-15T06:57:41;34.27;;;19.50;;
6356;SDS011;3211;53.452;-2.264;2023-02-15T07:00:08;31.17;;;18.77;;
6356;SDS011;3211;53.452;-2.264;2023-02-15T07:02:36;28.90;;;18.50;;
6356;SDS011;3211;53.452;-2.264;2023-02-15T07:05:03;35.73;;;21.00;;
6356;SDS011;3211;53.452;-2.264;2023-02-15T07:07:30;26.93;;;18.60;;
6356;SDS011;3211;53.452;-2.264;2023-02-15T07:09:58;31.00;;;19.17;;
6356;SDS011;3211;53.452;-2.264;2023-02-15T07:12:25;30.83;;;19.40;;
6356;SDS011;3211;53.452;-2.264;2023-02-15T07:15:06;29.90;;;19.20;;
6356;SDS011;3211;53.452;-2.264;2023-02-15T07:17:34;26.30;;;16.90;;
6356;SDS011;3211;53.452;-2.264;2023-02-15T07:20:02;30.27;;;19.43;;
6356;SDS011;3211;53.452;-2.264;2023-02-15T07:22:29;31.77;;;20.23;;
6356;SDS011;3211;53.452;-2.264;2023-02-15T07:25:00;31.53;;;20.50;;
6356;SDS011;3211;53.452;-2.264;2023-02-15T07:27:27;29.57;;;18.90;;
6356;SDS011;3211;53.452;-2.264;2023-02-15T07:29:54;28.07;;;18.80;;
6356;SDS011;3211;53.452;-2.264;2023-02-15T07:32:21;28.40;;;18.83;;
6356;SDS011;3211;53.452;-2.264;2023-02-15T07:34:48;31.27;;;18.93;;
6356;SDS011;3211;53.452;-2.264;2023-02-15T07:37:15;28.60;;;19.10;;
6356;SDS011;3211;53.452;-2.264;2023-02-15T07:39:41;37.43;;;22.07;;
6356;SDS011;3211;53.452;-2.264;2023-02-15T07:42:10;37.67;;;21.13;;
6356;SDS011;3211;53.452;-2.264;2023-02-15T07:44:37;38.73;;;20.53;;
6356;SDS011;3211;53.452;-2.264;2023-02-15T07:47:04;34.83;;;21.47;;
6356;SDS011;3211;53.452;-2.264;2023-02-15T07:49:31;37.83;;;23.60;;
6356;SDS011;3211;53.452;-2.264;2023-02-15T07:51:58;36.33;;;20.57;;
6356;SDS011;3211;53.452;-2.264;2023-02-15T07:54:27;32.37;;;20.60;;
6356;SDS011;3211;53.452;-2.264;2023-02-15T07:56:53;32.57;;;21.67;;
6356;SDS011;3211;53.452;-2.264;2023-02-15T07:59:22;36.40;;;21.90;;
6356;SDS011;3211;53.452;-2.264;2023-02-15T08:01:49;38.73;;;21.70;;
6356;SDS011;3211;53.452;-2.264;2023-02-15T08:04:18;30.23;;;20.87;;
6356;SDS011;3211;53.452;-2.264;2023-02-15T08:06:44;30.40;;;20.47;;
6356;SDS011;3211;53.452;-2.264;2023-02-15T08:09:11;36.90;;;23.20;;
6356;SDS011;3211;53.452;-2.264;2023-02-15T08:11:38;37.63;;;22.97;;
6356;SDS011;3211;53.452;-2.264;2023-02-15T08:14:06;32.53;;;20.87;;
6356;SDS011;3211;53.452;-2.264;2023-02-15T08:16:37;38.87;;;21.70;;
6356;SDS011;3211;53.452;-2.264;2023-02-15T08:19:06;35.80;;;22.70;;
6356;SDS011;3211;53.452;-2.264;2023-02-15T08:21:34;40.07;;;24.07;;
6356;SDS011;3211;53.452;-2.264;2023-02-15T08:24:02;35.30;;;22.93;;
6356;SDS011;3211;53.452;-2.264;2023-02-15T08:26:30;32.10;;;22.57;;
6356;SDS011;3211;53.452;-2.264;2023-02-15T08:28:58;34.27;;;22.70;;
6356;SDS011;3211;53.452;-2.264;2023-02-15T08:31:26;31.00;;;21.50;;
6356;SDS011;3211;53.452;-2.264;2023-02-15T08:33:55;34.73;;;23.53;;
6356;SDS011;3211;53.452;-2.264;2023-02-15T08:36:23;38.43;;;23.87;;
6356;SDS011;3211;53.452;-2.264;2023-02-15T08:38:52;40.00;;;24.27;;
6356;SDS011;3211;53.452;-2.264;2023-02-15T08:41:19;33.27;;;24.20;;
6356;SDS011;3211;53.452;-2.264;2023-02-15T08:43:48;34.30;;;23.07;;
6356;SDS011;3211;53.452;-2.264;2023-02-15T08:46:17;37.77;;;24.27;;
6356;SDS011;3211;53.452;-2.264;2023-02-15T08:48:44;39.93;;;22.33;;
6356;SDS011;3211;53.452;-2.264;2023-02-15T08:51:14;36.13;;;22.17;;
6356;SDS011;3211;53.452;-2.264;2023-02-15T08:53:43;33.10;;;22.70;;
6356;SDS011;3211;53.452;-2.264;2023-02-15T08:56:11;37.37;;;23.00;;
6356;SDS011;3211;53.452;-2.264;2023-02-15T08:58:38;38.77;;;23.80;;
6356;SDS011;3211;53.452;-2.264;2023-02-15T09:01:08;41.17;;;24.80;;
6356;SDS011;3211;53.452;-2.264;2023-02-15T09:03:36;39.20;;;23.47;;
6356;SDS011;3211;53.452;-2.264;2023-02-15T09:06:04;36.77;;;23.50;;
6356;SDS011;3211;53.452;-2.264;2023-02-15T09:08:33;40.30;;;24.33;;
6356;SDS011;3211;53.452;-2.264;2023-02-15T09:11:07;33.90;;;21.70;;
6356;SDS011;3211;53.452;-2.264;2023-02-15T09:13:35;40.13;;;25.00;;
6356;SDS011;3211;53.452;-2.264;2023-02-15T09:16:04;36.03;;;23.03;;
6356;SDS011;3211;53.452;-2.264;2023-02-15T09:18:33;42.27;;;24.30;;
6356;SDS011;3211;53.452;-2.264;2023-02-15T09:21:09;35.37;;;23.63;;
6356;SDS011;3211;53.452;-2.264;2023-02-15T09:23:41;38.83;;;23.30;;
6356;SDS011;3211;53.452;-2.264;2023-02-15T09:26:09;36.50;;;22.80;;
6356;SDS011;3211;53.452;-2.264;2023-02-15T09:28:38;36.93;;;22.97;;
6356;SDS011;3211;53.452;-2.264;2023-02-15T09:31:06;34.40;;;22.50;;
6356;SDS011;3211;53.452;-2.264;2023-02-15T09:33:35;34.90;;;21.77;;
6356;SDS011;3211;53.452;-2.264;2023-02-15T09:36:04;35.30;;;19.87;;
6356;SDS011;3211;53.452;-2.264;2023-02-15T09:38:32;35.60;;;23.43;;
6356;SDS011;3211;53.452;-2.264;2023-02-15T09:41:04;33.73;;;20.67;;
6356;SDS011;3211;53.452;-2.264;2023-02-15T09:43:55;34.43;;;22.77;;
6356;SDS011;3211;53.452;-2.264;2023-02-15T09:46:40;29.17;;;20.13;;
6356;SDS011;3211;53.452;-2.264;2023-02-15T09:49:16;36.80;;;22.27;;
6356;SDS011;3211;53.452;-2.264;2023-02-15T09:52:14;35.00;;;21.90;;
6356;SDS011;3211;53.452;-2.264;2023-02-15T09:55:09;33.43;;;23.50;;
6356;SDS011;3211;53.452;-2.264;2023-02-15T09:57:53;33.70;;;22.17;;
6356;SDS011;3211;53.452;-2.264;2023-02-15T10:00:29;30.70;;;19.20;;
6356;SDS011;3211;53.452;-2.264;2023-02-15T10:03:07;33.73;;;21.93;;
6356;SDS011;3211;53.452;-2.264;2023-02-15T10:05:45;34.70;;;23.27;;
6356;SDS011;3211;53.452;-2.264;2023-02-15T10:08:30;35.03;;;20.80;;
6356;SDS011;3211;53.452;-2.264;2023-02-15T10:11:07;38.23;;;22.70;;
6356;SDS011;3211;53.452;-2.264;2023-02-15T10:14:03;33.53;;;19.67;;
6356;SDS011;3211;53.452;-2.264;2023-02-15T10:16:49;32.87;;;20.53;;
6356;SDS011;3211;53.452;-2.264;2023-02-15T10:19:24;30.73;;;20.23;;
6356;SDS011;3211;53.452;-2.264;2023-02-15T10:22:02;32.13;;;20.83;;
6356;SDS011;3211;53.452;-2.264;2023-02-15T10:24:41;33.50;;;21.83;;
6356;SDS011;3211;53.452;-2.264;2023-02-15T10:27:19;27.50;;;19.27;;
6356;SDS011;3211;53.452;-2.264;2023-02-15T10:29:51;29.20;;;20.30;;
6356;SDS011;3211;53.452;-2.264;2023-02-15T10:32:28;33.43;;;21.37;;
6356;SDS011;3211;53.452;-2.264;2023-02-15T10:35:00;28.10;;;18.87;;
6356;SDS011;3211;53.452;-2.264;2023-02-15T10:37:38;30.23;;;20.43;;
6356;SDS011;3211;53.452;-2.264;2023-02-15T10:40:20;29.07;;;19.47;;
6356;SDS011;3211;53.452;-2.264;2023-02-15T10:42:59;30.23;;;18.07;;
6356;SDS011;3211;53.452;-2.264;2023-02-15T10:45:40;24.90;;;17.03;;
6356;SDS011;3211;53.452;-2.264;2023-02-15T10:48:22;33.10;;;17.90;;
6356;SDS011;3211;53.452;-2.264;2023-02-15T10:50:58;29.23;;;17.83;;
6356;SDS011;3211;53.452;-2.264;2023-02-15T10:53:34;33.03;;;18.50;;
6356;SDS011;3211;53.452;-2.264;2023-02-15T10:56:14;25.57;;;16.70;;
6356;SDS011;3211;53.452;-2.264;2023-02-15T10:58:49;24.90;;;16.27;;
6356;SDS011;3211;53.452;-2.264;2023-02-15T11:01:27;33.97;;;17.73;;
6356;SDS011;3211;53.452;-2.264;2023-02-15T11:07:11;28.80;;;16.43;;
6356;SDS011;3211;53.452;-2.264;2023-02-15T11:09:42;28.77;;;16.30;;
6356;SDS011;3211;53.452;-2.264;2023-02-15T11:12:16;27.93;;;18.07;;
6356;SDS011;3211;53.452;-2.264;2023-02-15T11:14:46;23.53;;;15.37;;
6356;SDS011;3211;53.452;-2.264;2023-02-15T11:17:21;26.23;;;17.77;;
6356;SDS011;3211;53.452;-2.264;2023-02-15T11:19:55;27.37;;;16.10;;
6356;SDS011;3211;53.452;-2.264;2023-02-15T11:22:27;27.97;;;16.50;;
6356;SDS011;3211;53.452;-2.264;2023-02-15T11:24:56;25.33;;;17.60;;
6356;SDS011;3211;53.452;-2.264;2023-02-15T11:27:25;29.40;;;17.97;;
6356;SDS011;3211;53.452;-2.264;2023-02-15T11:29:57;21.20;;;13.90;;
6356;SDS011;3211;53.452;-2.264;2023-02-15T11:32:29;26.97;;;17.47;;
6356;SDS011;3211;53.452;-2.264;2023-02-15T11:35:00;31.30;;;18.23;;
6356;SDS011;3211;53.452;-2.264;2023-02-15T11:37:33;24.73;;;17.77;;
6356;SDS011;3211;53.452;-2.264;2023-02-15T11:40:13;30.20;;;19.33;;
6356;SDS011;3211;53.452;-2.264;2023-02-15T11:42:45;36.20;;;18.43;;
6356;SDS011;3211;53.452;-2.264;2023-02-15T11:45:18;29.40;;;17.67;;
6356;SDS011;3211;53.452;-2.264;2023-02-15T11:48:10;30.30;;;18.77;;
6356;SDS011;3211;53.452;-2.264;2023-02-15T11:50:57;26.40;;;19.03;;
6356;SDS011;3211;53.452;-2.264;2023-02-15T11:53:25;25.80;;;18.10;;
6356;SDS011;3211;53.452;-2.264;2023-02-15T11:55:55;32.33;;;16.87;;
6356;SDS011;3211;53.452;-2.264;2023-02-15T11:58:25;23.40;;;16.80;;
6356;SDS011;3211;53.452;-2.264;2023-02-15T12:00:56;24.63;;;15.57;;
6356;SDS011;3211;53.452;-2.264;2023-02-15T12:03:33;24.97;;;15.20;;
6356;SDS011;3211;53.452;-2.264;2023-02-15T12:06:11;25.03;;;16.67;;
6356;SDS011;3211;53.452;-2.264;2023-02-15T12:08:44;25.97;;;17.00;;
6356;SDS011;3211;53.452;-2.264;2023-02-15T12:11:17;27.40;;;17.20;;
6356;SDS011;3211;53.452;-2.264;2023-02-15T12:16:33;31.90;;;16.80;;
6356;SDS011;3211;53.452;-2.264;2023-02-15T12:19:12;31.27;;;17.20;;
6356;SDS011;3211;53.452;-2.264;2023-02-15T12:21:54;27.23;;;15.53;;
6356;SDS011;3211;53.452;-2.264;2023-02-15T12:24:23;29.83;;;17.20;;
6356;SDS011;3211;53.452;-2.264;2023-02-15T12:26:56;24.40;;;15.47;;
6356;SDS011;3211;53.452;-2.264;2023-02-15T12:29:27;29.27;;;17.23;;
6356;SDS011;3211;53.452;-2.264;2023-02-15T12:31:56;28.67;;;16.37;;
6356;SDS011;3211;53.452;-2.264;2023-02-15T12:34:27;29.30;;;16.47;;
6356;SDS011;3211;53.452;-2.264;2023-02-15T12:36:57;28.30;;;16.20;;
6356;SDS011;3211;53.452;-2.264;2023-02-15T12:39:28;33.00;;;17.33;;
6356;SDS011;3211;53.452;-2.264;2023-02-15T12:42:01;28.90;;;17.10;;
6356;SDS011;3211;53.452;-2.264;2023-02-15T12:44:31;30.83;;;16.70;;
6356;SDS011;3211;53.452;-2.264;2023-02-15T12:47:00;22.80;;;14.73;;
6356;SDS011;3211;53.452;-2.264;2023-02-15T12:49:30;25.47;;;17.17;;
6356;SDS011;3211;53.452;-2.264;2023-02-15T12:51:58;23.37;;;17.37;;
6356;SDS011;3211;53.452;-2.264;2023-02-15T12:54:30;27.80;;;18.60;;
6356;SDS011;3211;53.452;-2.264;2023-02-15T12:57:12;24.00;;;16.83;;
6356;SDS011;3211;53.452;-2.264;2023-02-15T12:59:55;30.33;;;18.87;;
6356;SDS011;3211;53.452;-2.264;2023-02-15T13:02:24;29.20;;;18.30;;
6356;SDS011;3211;53.452;-2.264;2023-02-15T13:05:05;31.37;;;20.17;;
6356;SDS011;3211;53.452;-2.264;2023-02-15T13:07:44;30.97;;;18.70;;
6356;SDS011;3211;53.452;-2.264;2023-02-15T13:10:19;37.50;;;20.90;;
6356;SDS011;3211;53.452;-2.264;2023-02-15T13:12:49;35.53;;;19.80;;
6356;SDS011;3211;53.452;-2.264;2023-02-15T13:15:30;35.50;;;19.03;;
6356;SDS011;3211;53.452;-2.264;2023-02-15T13:18:01;31.30;;;20.00;;
6356;SDS011;3211;53.452;-2.264;2023-02-15T13:20:32;29.50;;;18.97;;
6356;SDS011;3211;53.452;-2.264;2023-02-15T13:23:03;31.10;;;20.00;;
6356;SDS011;3211;53.452;-2.264;2023-02-15T13:25:37;28.03;;;20.33;;
6356;SDS011;3211;53.452;-2.264;2023-02-15T13:28:15;31.90;;;18.70;;
6356;SDS011;3211;53.452;-2.264;2023-02-15T13:30:45;31.17;;;20.57;;
6356;SDS011;3211;53.452;-2.264;2023-02-15T13:33:14;28.97;;;19.83;;
6356;SDS011;3211;53.452;-2.264;2023-02-15T13:35:48;32.63;;;19.57;;
6356;SDS011;3211;53.452;-2.264;2023-02-15T13:38:31;30.53;;;19.03;;
6356;SDS011;3211;53.452;-2.264;2023-02-15T13:41:14;29.33;;;18.67;;
6356;SDS011;3211;53.452;-2.264;2023-02-15T13:43:47;27.90;;;19.20;;
6356;SDS011;3211;53.452;-2.264;2023-02-15T13:46:25;29.23;;;18.53;;
6356;SDS011;3211;53.452;-2.264;2023-02-15T13:49:11;29.57;;;19.67;;
6356;SDS011;3211;53.452;-2.264;2023-02-15T13:51:50;33.20;;;18.63;;
6356;SDS011;3211;53.452;-2.264;2023-02-15T13:54:28;28.87;;;21.20;;
6356;SDS011;3211;53.452;-2.264;2023-02-15T13:57:25;30.17;;;20.10;;
6356;SDS011;3211;53.452;-2.264;2023-02-15T14:00:10;32.37;;;20.50;;
6356;SDS011;3211;53.452;-2.264;2023-02-15T14:02:57;27.20;;;18.87;;
6356;SDS011;3211;53.452;-2.264;2023-02-15T14:05:54;31.23;;;19.33;;
6356;SDS011;3211;53.452;-2.264;2023-02-15T14:08:35;27.03;;;19.50;;
6356;SDS011;3211;53.452;-2.264;2023-02-15T14:11:12;26.63;;;19.30;;
6356;SDS011;3211;53.452;-2.264;2023-02-15T14:13:56;34.90;;;18.47;;
6356;SDS011;3211;53.452;-2.264;2023-02-15T14:16:41;25.90;;;17.40;;
6356;SDS011;3211;53.452;-2.264;2023-02-15T14:19:16;29.10;;;17.43;;
6356;SDS011;3211;53.452;-2.264;2023-02-15T14:21:50;23.60;;;17.00;;
6356;SDS011;3211;53.452;-2.264;2023-02-15T14:24:29;27.20;;;17.17;;
6356;SDS011;3211;53.452;-2.264;2023-02-15T14:27:01;27.73;;;17.07;;
6356;SDS011;3211;53.452;-2.264;2023-02-15T14:29:41;26.57;;;16.47;;
6356;SDS011;3211;53.452;-2.264;2023-02-15T14:32:24;24.33;;;15.60;;
6356;SDS011;3211;53.452;-2.264;2023-02-15T14:34:57;29.77;;;16.00;;
6356;SDS011;3211;53.452;-2.264;2023-02-15T14:37:29;23.30;;;15.30;;
6356;SDS011;3211;53.452;-2.264;2023-02-15T14:40:08;21.77;;;15.80;;
6356;SDS011;3211;53.452;-2.264;2023-02-15T14:43:00;29.23;;;16.30;;
6356;SDS011;3211;53.452;-2.264;2023-02-15T14:45:35;26.07;;;15.30;;
6356;SDS011;3211;53.452;-2.264;2023-02-15T14:48:10;20.00;;;14.07;;
6356;SDS011;3211;53.452;-2.264;2023-02-15T14:50:43;20.30;;;13.23;;
6356;SDS011;3211;53.452;-2.264;2023-02-15T14:53:15;23.07;;;13.17;;
6356;SDS011;3211;53.452;-2.264;2023-02-15T14:56:24;23.93;;;14.30;;
6356;SDS011;3211;53.452;-2.264;2023-02-15T14:59:11;17.73;;;11.30;;
6356;SDS011;3211;53.452;-2.264;2023-02-15T15:01:42;14.90;;;9.97;;
6356;SDS011;3211;53.452;-2.264;2023-02-15T15:04:22;15.20;;;9.10;;
6356;SDS011;3211;53.452;-2.264;2023-02-15T15:06:58;11.60;;;9.33;;
6356;SDS011;3211;53.452;-2.264;2023-02-15T15:09:28;12.40;;;8.80;;
6356;SDS011;3211;53.452;-2.264;2023-02-15T15:12:12;10.87;;;8.83;;
6356;SDS011;3211;53.452;-2.264;2023-02-15T15:14:42;18.13;;;8.40;;
6356;SDS011;3211;53.452;-2.264;2023-02-15T15:17:11;11.00;;;8.00;;
6356;SDS011;3211;53.452;-2.264;2023-02-15T15:20:01;10.67;;;8.33;;
6356;SDS011;3211;53.452;-2.264;2023-02-15T15:22:32;10.90;;;8.00;;